Time;durP1;ratioP1;P1;durP2;ratioP2;P2;SDS_P1;SDS_P2;PMS_P1;PMS_P2;Temp;Humidity;BMP_temperature;BMP_pressure;BME280_temperature;BME280_humidity;BME280_pressure;Samples;Min_cycle;Max_cycle;Signal;HPM_P1;HPM_P2
2022/11/16 00:01:06;;;;;;;43.17;23.90;;;2.60;99.90;;;;;;8281295;28;20288;-70
2022/11/16 00:05:07;;;;;;;48.30;26.07;;;2.60;99.90;;;;;;8284297;28;20185;-70
2022/11/16 00:09:22;;;;;;;39.60;23.17;;;2.70;99.90;;;;;;8285272;28;20182;-70
2022/11/16 00:13:23;;;;;;;37.40;23.50;;;2.80;99.90;;;;;;8285552;28;20191;-69
2022/11/16 00:17:24;;;;;;;45.73;25.93;;;2.90;99.90;;;;;;8298251;28;20201;-70
2022/11/16 00:21:25;;;;;;;44.67;26.20;;;2.90;99.90;;;;;;8283034;28;20211;-71
2022/11/16 00:25:26;;;;;;;47.63;25.70;;;3.00;99.90;;;;;;8281380;28;20267;-70
2022/11/16 00:29:27;;;;;;;48.40;26.70;;;3.10;99.90;;;;;;8283616;28;20257;-70
2022/11/16 00:33:28;;;;;;;51.53;28.57;;;3.10;99.90;;;;;;8315706;28;20278;-70
2022/11/16 00:37:29;;;;;;;36.93;22.87;;;3.10;99.90;;;;;;8284737;28;20179;-69
2022/11/16 00:41:30;;;;;;;33.50;21.00;;;3.20;99.90;;;;;;8281372;28;20302;-70
2022/11/16 00:45:30;;;;;;;47.10;24.47;;;3.20;99.90;;;;;;8282486;28;20525;-69
2022/11/16 00:49:31;;;;;;;37.33;23.17;;;3.30;99.90;;;;;;8282766;28;20187;-71
2022/11/16 00:53:34;;;;;;;37.43;22.80;;;3.30;99.90;;;;;;8283966;28;20183;-70
2022/11/16 00:57:35;;;;;;;37.37;21.37;;;3.40;99.90;;;;;;8283101;28;20206;-70
2022/11/16 01:01:36;;;;;;;44.63;26.80;;;3.40;99.90;;;;;;8280903;28;20250;-71
2022/11/16 01:05:37;;;;;;;48.00;26.80;;;3.50;99.90;;;;;;8282092;28;20190;-71
2022/11/16 01:09:38;;;;;;;79.60;34.23;;;3.50;99.90;;;;;;8283831;28;20194;-70
2022/11/16 01:13:38;;;;;;;80.73;41.13;;;3.60;99.90;;;;;;8281562;28;20210;-70
2022/11/16 01:17:40;;;;;;;76.90;36.37;;;3.60;99.90;;;;;;8281406;28;20203;-69
2022/11/16 01:21:44;;;;;;;58.97;31.47;;;3.70;99.90;;;;;;8279572;28;20210;-70
2022/11/16 01:26:00;;;;;;;62.27;33.20;;;3.70;99.90;;;;;;8281513;28;20182;-69
2022/11/16 01:30:01;;;;;;;67.97;33.17;;;3.70;99.90;;;;;;8281626;28;20301;-70
2022/11/16 01:34:02;;;;;;;56.93;31.67;;;3.70;99.90;;;;;;8281297;28;20183;-69
2022/11/16 01:38:06;;;;;;;55.70;31.43;;;3.80;99.90;;;;;;8316316;28;20426;-70
2022/11/16 01:42:06;;;;;;;64.47;34.20;;;3.80;99.90;;;;;;8309633;28;20179;-70
2022/11/16 01:46:07;;;;;;;58.90;32.77;;;3.80;99.90;;;;;;8312876;28;20213;-70
2022/11/16 01:50:12;;;;;;;54.97;32.87;;;3.90;99.90;;;;;;8283679;28;20488;-70
2022/11/16 01:54:13;;;;;;;52.10;30.30;;;3.90;99.90;;;;;;8286431;28;20296;-70
2022/11/16 01:58:18;;;;;;;49.47;30.33;;;3.90;99.90;;;;;;8284999;28;20218;-70
2022/11/16 02:02:19;;;;;;;56.53;31.57;;;4.00;99.90;;;;;;8285842;28;20179;-70
2022/11/16 02:06:26;;;;;;;61.97;34.07;;;4.10;99.90;;;;;;8285176;28;20183;-69
2022/11/16 02:10:47;;;;;;;47.90;29.27;;;4.10;99.90;;;;;;8317392;28;20194;-71
2022/11/16 02:15:25;;;;;;;71.00;34.73;;;4.10;99.90;;;;;;8276164;28;20191;-70
2022/11/16 02:19:45;;;;;;;52.60;29.57;;;4.10;99.90;;;;;;8290434;28;20214;-70
2022/11/16 02:24:04;;;;;;;49.43;28.53;;;4.10;99.90;;;;;;8286834;28;20282;-70
2022/11/16 02:28:18;;;;;;;57.13;31.03;;;4.20;99.90;;;;;;8318507;28;20180;-70
2022/11/16 02:32:40;;;;;;;62.17;34.27;;;4.20;99.90;;;;;;8316797;28;20274;-70
2022/11/16 02:36:42;;;;;;;60.27;34.37;;;4.20;99.90;;;;;;8285698;28;20187;-70
2022/11/16 02:40:48;;;;;;;62.23;34.73;;;4.30;99.90;;;;;;8284590;28;20766;-70
2022/11/16 02:44:53;;;;;;;67.60;39.20;;;4.30;99.90;;;;;;8284550;28;20183;-69
2022/11/16 02:48:59;;;;;;;71.73;38.97;;;4.40;99.90;;;;;;8302169;28;20190;-70
2022/11/16 02:52:59;;;;;;;74.90;40.47;;;4.40;99.90;;;;;;8284911;28;20192;-70
2022/11/16 02:57:03;;;;;;;70.63;39.60;;;4.40;99.90;;;;;;8286270;28;20203;-70
2022/11/16 03:01:33;;;;;;;65.53;39.03;;;4.40;99.90;;;;;;8315523;28;20203;-70
2022/11/16 03:05:38;;;;;;;66.47;39.20;;;4.40;99.90;;;;;;8299028;28;20192;-70
2022/11/16 03:09:42;;;;;;;59.93;35.27;;;4.40;99.90;;;;;;8285262;28;20202;-70
2022/11/16 03:13:45;;;;;;;64.43;35.83;;;4.50;99.90;;;;;;8314839;28;20324;-71
2022/11/16 03:17:48;;;;;;;55.97;33.73;;;4.50;99.90;;;;;;8285024;28;20253;-70
2022/11/16 03:21:56;;;;;;;54.20;31.27;;;4.50;99.90;;;;;;8286215;28;20203;-70
2022/11/16 03:25:59;;;;;;;64.73;37.97;;;4.50;99.90;;;;;;8302266;28;20194;-70
2022/11/16 03:30:10;;;;;;;90.17;46.33;;;4.60;99.90;;;;;;8301847;28;20210;-69
2022/11/16 03:34:15;;;;;;;91.90;47.50;;;4.60;99.90;;;;;;8300318;28;20195;-70
2022/11/16 03:38:17;;;;;;;91.17;50.67;;;4.70;99.90;;;;;;8285541;28;20191;-69
2022/11/16 03:42:19;;;;;;;87.37;47.67;;;4.70;99.90;;;;;;8282879;28;20192;-70
2022/11/16 03:46:20;;;;;;;99.37;52.57;;;4.80;99.90;;;;;;8285339;28;20233;-70
2022/11/16 03:50:21;;;;;;;107.23;56.43;;;4.80;99.90;;;;;;8285216;28;20214;-70
2022/11/16 03:54:22;;;;;;;117.53;55.60;;;4.80;99.90;;;;;;8317988;28;20193;-70
2022/11/16 03:58:22;;;;;;;111.43;56.10;;;4.90;99.90;;;;;;8285353;28;20236;-70
2022/11/16 04:02:23;;;;;;;113.43;59.97;;;4.90;99.90;;;;;;8283358;28;20183;-70
2022/11/16 04:28:12;;;;;;;133.73;60.27;;;5.10;99.90;;;;;;8285265;28;20199;-70
2022/11/16 04:40:52;;;;;;;113.43;56.43;;;5.10;99.90;;;;;;8282026;28;20297;-69
2022/11/16 04:49:12;;;;;;;125.93;58.97;;;5.20;99.90;;;;;;8283251;28;20540;-70
2022/11/16 04:53:13;;;;;;;118.43;55.67;;;5.20;99.90;;;;;;8297682;28;20356;-69
2022/11/16 04:57:14;;;;;;;101.20;50.80;;;5.20;99.90;;;;;;8281026;28;20476;-71
2022/11/16 05:01:15;;;;;;;105.23;51.73;;;5.20;99.90;;;;;;8283234;28;20243;-70
2022/11/16 05:05:16;;;;;;;90.23;47.70;;;5.10;99.90;;;;;;8283855;28;20179;-69
2022/11/16 05:09:16;;;;;;;101.60;50.97;;;5.20;99.90;;;;;;8282883;28;20179;-69
2022/11/16 05:13:17;;;;;;;100.17;49.50;;;5.10;99.90;;;;;;8282536;28;20227;-70
2022/11/16 05:17:18;;;;;;;93.90;48.30;;;5.10;99.90;;;;;;8281638;28;20199;-70
2022/11/16 05:21:19;;;;;;;95.20;51.60;;;5.10;99.90;;;;;;8282619;28;20222;-70
2022/11/16 05:25:20;;;;;;;94.07;49.77;;;5.00;99.90;;;;;;8285021;28;20257;-69
2022/11/16 05:29:21;;;;;;;87.03;44.23;;;5.00;99.90;;;;;;8289032;28;20219;-69
2022/11/16 05:33:22;;;;;;;98.53;51.33;;;4.90;99.90;;;;;;8288211;28;20179;-69
2022/11/16 05:37:25;;;;;;;88.90;45.80;;;4.90;99.90;;;;;;8288248;28;20241;-68
2022/11/16 05:41:26;;;;;;;91.10;43.00;;;4.90;99.90;;;;;;8288667;28;20211;-70
2022/11/16 05:45:27;;;;;;;98.17;46.13;;;4.90;99.90;;;;;;8289170;28;20194;-69
2022/11/16 05:49:28;;;;;;;96.87;45.43;;;4.90;99.90;;;;;;8285875;28;20279;-69
2022/11/16 05:53:28;;;;;;;108.50;46.57;;;4.90;99.90;;;;;;8285434;28;20203;-69
2022/11/16 05:57:29;;;;;;;105.77;49.07;;;4.80;99.90;;;;;;8287973;28;20211;-70
2022/11/16 06:01:30;;;;;;;110.13;46.93;;;4.80;99.90;;;;;;8286723;28;20276;-70
2022/11/16 06:05:34;;;;;;;85.43;43.23;;;4.80;99.90;;;;;;8285529;28;20187;-70
2022/11/16 06:09:34;;;;;;;93.03;44.47;;;4.80;99.90;;;;;;8285837;28;20199;-70
2022/11/16 06:13:35;;;;;;;80.73;39.37;;;4.80;99.90;;;;;;8287733;28;20301;-70
2022/11/16 06:17:36;;;;;;;76.90;38.90;;;4.80;99.90;;;;;;8288631;28;20203;-72
2022/11/16 06:21:37;;;;;;;72.67;36.70;;;4.70;99.90;;;;;;8285063;28;20285;-69
2022/11/16 06:25:39;;;;;;;76.57;38.90;;;4.70;99.90;;;;;;8284112;28;20191;-70
2022/11/16 06:29:39;;;;;;;81.33;39.57;;;4.80;99.90;;;;;;8284447;28;20207;-70
2022/11/16 06:33:40;;;;;;;83.23;39.00;;;4.70;99.90;;;;;;8287151;28;20325;-70
2022/11/16 06:37:41;;;;;;;68.73;36.30;;;4.70;99.90;;;;;;8285718;28;20202;-70
2022/11/16 06:41:42;;;;;;;73.43;36.30;;;4.70;99.90;;;;;;8288863;28;20210;-70
2022/11/16 06:45:43;;;;;;;77.13;37.73;;;4.70;99.90;;;;;;8287652;28;20179;-70
2022/11/16 06:49:44;;;;;;;75.00;35.30;;;4.70;99.90;;;;;;8285829;28;20199;-70
2022/11/16 06:53:45;;;;;;;72.50;34.87;;;4.70;99.90;;;;;;8285112;28;20180;-70
2022/11/16 06:57:46;;;;;;;67.97;35.40;;;4.70;99.90;;;;;;8284307;28;20203;-71
2022/11/16 07:01:46;;;;;;;62.20;32.93;;;4.70;99.90;;;;;;8282018;28;20207;-70
2022/11/16 07:05:47;;;;;;;65.60;32.63;;;4.70;99.90;;;;;;8281986;28;20511;-70
2022/11/16 07:09:49;;;;;;;61.93;33.07;;;4.70;99.90;;;;;;8276545;28;20233;-70
2022/11/16 07:13:49;;;;;;;64.13;32.93;;;4.80;99.90;;;;;;8288334;28;20211;-70
2022/11/16 07:17:50;;;;;;;64.40;34.53;;;4.80;99.90;;;;;;8285499;28;20191;-70
2022/11/16 07:21:51;;;;;;;89.63;43.70;;;4.80;99.90;;;;;;8281904;28;20218;-71
2022/11/16 07:25:52;;;;;;;81.43;38.63;;;4.90;99.90;;;;;;8283142;28;20175;-71
2022/11/16 07:29:53;;;;;;;79.33;36.37;;;4.90;99.90;;;;;;8283507;28;20234;-70
2022/11/16 07:33:53;;;;;;;96.97;45.20;;;4.90;99.90;;;;;;8285766;28;20233;-70
2022/11/16 07:37:54;;;;;;;88.40;42.63;;;4.90;99.90;;;;;;8286185;28;20175;-70
2022/11/16 07:41:55;;;;;;;70.57;35.40;;;4.90;99.90;;;;;;8283535;28;20218;-71
2022/11/16 07:45:57;;;;;;;67.60;34.03;;;4.90;99.90;;;;;;8288396;28;20179;-71
2022/11/16 07:49:58;;;;;;;64.77;35.70;;;4.90;99.90;;;;;;8284828;28;20191;-70
2022/11/16 07:53:58;;;;;;;66.20;34.10;;;4.90;99.90;;;;;;8286150;28;20191;-71
2022/11/16 07:57:59;;;;;;;76.00;36.60;;;5.00;99.90;;;;;;8285366;28;20195;-70
2022/11/16 08:02:00;;;;;;;69.17;34.13;;;5.00;99.90;;;;;;8284651;28;20207;-70
2022/11/16 08:06:06;;;;;;;83.77;39.77;;;5.00;99.90;;;;;;8281386;28;20190;-70
2022/11/16 08:10:08;;;;;;;82.43;38.17;;;5.00;99.90;;;;;;8296853;28;20183;-70
2022/11/16 08:14:10;;;;;;;75.20;35.83;;;5.00;99.90;;;;;;8316724;28;20184;-70
2022/11/16 08:18:11;;;;;;;72.00;33.23;;;5.10;99.90;;;;;;8284791;28;20217;-70
2022/11/16 08:22:12;;;;;;;69.80;34.17;;;5.10;99.90;;;;;;8283434;28;20215;-70
2022/11/16 08:26:16;;;;;;;68.77;33.93;;;5.10;99.90;;;;;;8280201;28;20851;-70
2022/11/16 08:30:17;;;;;;;68.57;32.97;;;5.10;99.90;;;;;;8282596;28;20215;-70
2022/11/16 08:34:17;;;;;;;74.33;34.93;;;5.10;99.90;;;;;;8282802;28;20208;-70
2022/11/16 08:38:18;;;;;;;68.63;33.43;;;5.10;99.90;;;;;;8283816;28;20446;-70
2022/11/16 08:42:20;;;;;;;74.83;35.10;;;5.20;99.90;;;;;;8283329;28;20203;-71
2022/11/16 08:46:21;;;;;;;66.50;31.73;;;5.20;99.90;;;;;;8282664;28;20207;-70
2022/11/16 08:50:22;;;;;;;85.00;39.23;;;5.20;99.90;;;;;;8284478;28;20195;-70
2022/11/16 08:54:22;;;;;;;80.13;37.00;;;5.20;99.90;;;;;;8284072;28;20214;-70
2022/11/16 08:58:23;;;;;;;78.40;35.63;;;5.30;99.90;;;;;;8284333;28;20276;-71
2022/11/16 09:02:24;;;;;;;76.00;32.60;;;5.30;99.90;;;;;;8321263;28;20179;-70
2022/11/16 09:06:26;;;;;;;70.10;31.10;;;5.30;99.90;;;;;;8321035;28;20203;-70
2022/11/16 09:10:27;;;;;;;70.90;30.73;;;5.30;99.90;;;;;;8288581;28;20184;-70
2022/11/16 09:14:29;;;;;;;87.87;41.20;;;5.40;99.90;;;;;;8290291;28;20188;-70
2022/11/16 09:18:30;;;;;;;79.10;40.27;;;5.40;99.90;;;;;;8322893;28;20241;-70
2022/11/16 09:22:31;;;;;;;93.77;42.83;;;5.40;99.90;;;;;;8288132;28;20213;-71
2022/11/16 09:26:32;;;;;;;89.50;42.17;;;5.40;99.90;;;;;;8291936;28;20183;-70
2022/11/16 09:30:33;;;;;;;76.47;35.67;;;5.40;99.90;;;;;;8287984;28;20183;-70
2022/11/16 09:34:34;;;;;;;75.00;34.13;;;5.50;99.90;;;;;;8321179;28;20203;-71
2022/11/16 09:38:40;;;;;;;73.10;32.67;;;5.50;99.90;;;;;;8321875;28;20184;-69
2022/11/16 09:43:00;;;;;;;78.03;35.30;;;5.60;99.90;;;;;;8288712;28;20183;-71
2022/11/16 09:47:01;;;;;;;77.43;33.87;;;5.60;99.90;;;;;;8321377;28;20492;-71
2022/11/16 09:51:07;;;;;;;81.77;35.17;;;5.60;99.90;;;;;;8287710;28;20247;-71
2022/11/16 09:55:48;;;;;;;78.10;34.83;;;5.60;99.90;;;;;;8320034;28;20532;-71
2022/11/16 09:59:53;;;;;;;105.83;37.13;;;5.60;99.90;;;;;;8302757;28;20223;-71
2022/11/16 10:04:07;;;;;;;83.17;34.13;;;5.60;99.90;;;;;;8289234;28;20179;-70
2022/11/16 10:08:35;;;;;;;73.13;29.13;;;5.60;99.90;;;;;;8289153;28;20187;-70
2022/11/16 10:12:50;;;;;;;66.73;29.83;;;5.60;99.90;;;;;;8320092;28;20251;-70
2022/11/16 10:17:22;;;;;;;74.57;35.47;;;5.60;99.90;;;;;;8302655;28;20241;-71
2022/11/16 10:22:09;;;;;;;58.30;25.70;;;5.50;99.90;;;;;;8288303;28;20210;-72
2022/11/16 10:26:29;;;;;;;71.70;29.37;;;5.50;99.90;;;;;;8322054;28;20182;-72
2022/11/16 10:30:36;;;;;;;69.03;30.07;;;5.50;99.90;;;;;;8280555;28;20183;-71
2022/11/16 10:35:13;;;;;;;60.53;26.47;;;5.50;99.90;;;;;;8286255;28;20183;-70
2022/11/16 10:39:18;;;;;;;53.27;24.67;;;5.50;99.90;;;;;;8283296;28;20204;-71
2022/11/16 10:43:26;;;;;;;59.53;26.60;;;5.50;99.90;;;;;;8285109;28;20294;-71
2022/11/16 10:47:55;;;;;;;56.17;26.70;;;5.40;99.90;;;;;;8300977;28;20277;-70
2022/11/16 10:51:57;;;;;;;69.17;30.60;;;5.40;99.90;;;;;;8287735;28;20187;-71
2022/11/16 10:56:13;;;;;;;63.17;28.27;;;5.40;99.90;;;;;;8286618;28;20190;-70
2022/11/16 11:00:33;;;;;;;57.23;26.00;;;5.30;99.90;;;;;;8283110;28;20207;-72
2022/11/16 11:04:34;;;;;;;72.87;33.60;;;5.30;99.90;;;;;;8278311;28;20185;-71
2022/11/16 11:08:34;;;;;;;66.60;27.93;;;5.30;99.90;;;;;;8283257;28;20187;-71
2022/11/16 11:12:38;;;;;;;73.43;30.20;;;5.20;99.90;;;;;;8281195;28;20790;-71
2022/11/16 11:16:40;;;;;;;60.00;27.30;;;5.20;99.90;;;;;;8281552;28;20643;-71
2022/11/16 11:20:43;;;;;;;69.37;29.63;;;5.20;99.90;;;;;;8278799;28;20211;-71
2022/11/16 11:24:47;;;;;;;75.60;32.27;;;5.20;99.90;;;;;;8283113;28;20214;-71
2022/11/16 11:28:48;;;;;;;68.97;29.43;;;5.20;99.90;;;;;;8278897;28;20191;-71
2022/11/16 11:32:51;;;;;;;66.97;31.13;;;5.20;99.90;;;;;;8280524;28;20271;-72
2022/11/16 11:37:00;;;;;;;68.80;28.77;;;5.20;99.90;;;;;;8278602;28;20175;-72
2022/11/16 11:41:05;;;;;;;67.80;29.87;;;5.30;99.90;;;;;;8279489;28;20289;-70
2022/11/16 11:45:12;;;;;;;70.47;31.00;;;5.30;99.90;;;;;;8280240;28;20180;-72
2022/11/16 11:49:22;;;;;;;62.07;28.53;;;5.30;99.90;;;;;;8311179;28;20190;-71
2022/11/16 11:53:48;;;;;;;59.17;27.37;;;5.30;99.90;;;;;;8280194;28;20253;-71
2022/11/16 11:57:54;;;;;;;55.67;25.73;;;5.30;99.90;;;;;;8311032;28;20251;-71
2022/11/16 12:02:15;;;;;;;57.53;28.60;;;5.30;99.90;;;;;;8281810;28;20207;-71
2022/11/16 12:07:06;;;;;;;54.37;27.83;;;5.30;99.90;;;;;;8281867;28;20187;-70
2022/11/16 12:11:19;;;;;;;48.53;24.73;;;5.30;99.90;;;;;;8299017;28;20179;-71
2022/11/16 12:15:42;;;;;;;47.07;24.23;;;5.30;99.90;;;;;;8316488;28;20199;-71
2022/11/16 12:19:58;;;;;;;44.00;22.47;;;5.30;99.90;;;;;;8285496;28;20207;-72
2022/11/16 12:24:05;;;;;;;40.93;22.30;;;5.30;99.90;;;;;;8284498;28;20566;-72
2022/11/16 12:28:29;;;;;;;37.43;19.73;;;5.20;99.90;;;;;;8281884;28;20217;-72
2022/11/16 12:32:49;;;;;;;37.53;19.23;;;5.30;99.90;;;;;;8276979;28;20188;-72
2022/11/16 12:37:09;;;;;;;46.37;24.47;;;5.30;99.90;;;;;;8296693;28;20261;-71
2022/11/16 12:41:43;;;;;;;54.23;26.93;;;5.30;99.90;;;;;;8314285;28;20223;-72
2022/11/16 12:46:00;;;;;;;55.80;27.80;;;5.30;99.90;;;;;;8285471;28;20233;-72
2022/11/16 12:50:38;;;;;;;45.53;23.30;;;5.30;99.90;;;;;;8282841;28;20184;-71
2022/11/16 12:55:06;;;;;;;46.07;27.40;;;5.40;99.90;;;;;;8316109;28;20187;-72
2022/11/16 12:59:09;;;;;;;48.53;26.20;;;5.30;99.90;;;;;;8281506;28;20211;-71
2022/11/16 13:03:19;;;;;;;41.63;22.17;;;5.30;99.90;;;;;;8311247;28;20221;-72
2022/11/16 13:07:56;;;;;;;41.73;24.07;;;5.20;99.90;;;;;;8311253;28;20277;-71
2022/11/16 13:12:02;;;;;;;41.90;24.00;;;5.20;99.90;;;;;;8284189;28;20685;-70
2022/11/16 13:16:05;;;;;;;44.10;24.13;;;5.20;99.90;;;;;;8282656;28;20520;-72
2022/11/16 13:20:21;;;;;;;34.93;21.10;;;5.20;99.90;;;;;;8284520;28;20229;-73
2022/11/16 13:24:26;;;;;;;41.63;23.70;;;5.20;99.90;;;;;;8313657;28;20187;-72
2022/11/16 13:28:54;;;;;;;30.83;19.63;;;5.30;99.90;;;;;;8315281;28;20211;-73
2022/11/16 13:33:22;;;;;;;30.17;19.37;;;5.30;99.90;;;;;;8314111;28;20184;-73
2022/11/16 13:37:38;;;;;;;29.33;17.73;;;5.30;99.90;;;;;;8315159;28;20275;-72
2022/11/16 13:41:40;;;;;;;40.97;26.87;;;5.30;99.90;;;;;;8297179;28;20223;-72
2022/11/16 13:45:58;;;;;;;38.67;23.73;;;5.30;99.90;;;;;;8286284;28;20295;-72
2022/11/16 13:50:05;;;;;;;38.20;22.73;;;5.20;99.90;;;;;;8286350;28;20212;-72
2022/11/16 13:54:12;;;;;;;46.63;26.20;;;5.20;99.90;;;;;;8305852;28;20183;-71
2022/11/16 13:58:20;;;;;;;38.13;22.47;;;5.20;99.90;;;;;;8319372;28;20208;-71
2022/11/16 14:02:32;;;;;;;35.03;21.13;;;5.20;99.90;;;;;;8286339;28;20238;-72
2022/11/16 14:06:33;;;;;;;31.70;18.60;;;5.20;99.90;;;;;;8321193;28;20187;-72
2022/11/16 14:10:34;;;;;;;33.57;19.43;;;5.20;99.90;;;;;;8321521;28;20307;-73
2022/11/16 14:15:12;;;;;;;32.40;19.77;;;5.20;99.90;;;;;;8288148;28;20272;-72
2022/11/16 14:19:48;;;;;;;31.80;19.27;;;5.20;99.90;;;;;;8299326;28;20211;-72
2022/11/16 14:24:07;;;;;;;36.77;22.13;;;5.10;99.90;;;;;;8286959;28;20187;-72
2022/11/16 14:28:17;;;;;;;62.37;33.67;;;5.10;99.90;;;;;;8286082;28;20302;-71
2022/11/16 14:32:45;;;;;;;54.70;27.63;;;5.10;99.90;;;;;;8288340;28;20199;-72
2022/11/16 14:36:48;;;;;;;33.23;20.50;;;5.10;99.90;;;;;;8288180;28;20215;-71
2022/11/16 14:40:51;;;;;;;37.83;22.27;;;5.10;99.90;;;;;;8276853;28;20289;-72
2022/11/16 14:45:23;;;;;;;33.63;19.90;;;5.10;99.90;;;;;;8287712;28;20184;-70
2022/11/16 14:49:26;;;;;;;32.83;19.87;;;5.10;99.90;;;;;;8285520;28;20192;-72
2022/11/16 14:53:28;;;;;;;34.47;20.27;;;5.10;99.90;;;;;;8286679;28;20194;-73
2022/11/16 14:57:29;;;;;;;36.37;22.80;;;5.00;99.90;;;;;;8316029;28;20212;-70
2022/11/16 15:01:37;;;;;;;38.67;23.90;;;5.00;99.90;;;;;;8285473;28;20210;-71
2022/11/16 15:05:38;;;;;;;36.23;19.53;;;5.00;99.90;;;;;;8286935;28;20190;-73
2022/11/16 15:09:43;;;;;;;30.67;18.87;;;5.00;99.90;;;;;;8283075;28;20187;-72
2022/11/16 15:13:45;;;;;;;28.90;17.00;;;5.00;99.90;;;;;;8281443;28;20206;-73
2022/11/16 15:18:11;;;;;;;36.10;21.13;;;5.00;99.90;;;;;;8284137;28;20199;-73
2022/11/16 15:22:17;;;;;;;34.53;19.27;;;5.00;99.90;;;;;;8283064;28;20318;-72
2022/11/16 15:26:22;;;;;;;29.70;17.93;;;5.00;99.90;;;;;;8282430;28;20252;-73
2022/11/16 15:30:33;;;;;;;52.60;28.77;;;5.00;99.90;;;;;;8282722;28;20191;-73
2022/11/16 15:34:37;;;;;;;39.60;24.10;;;5.00;99.90;;;;;;8282376;28;20187;-73
2022/11/16 15:38:38;;;;;;;35.43;21.43;;;4.90;99.90;;;;;;8280758;28;20242;-71
2022/11/16 15:42:40;;;;;;;25.67;16.17;;;5.00;99.90;;;;;;8281608;28;20214;-72
2022/11/16 15:46:44;;;;;;;27.90;17.63;;;5.00;99.90;;;;;;8281596;28;20664;-72
2022/11/16 15:51:11;;;;;;;27.27;17.97;;;4.90;99.90;;;;;;8280208;28;20188;-73
2022/11/16 15:55:27;;;;;;;30.97;18.63;;;5.00;99.90;;;;;;8275432;28;20231;-73
2022/11/16 15:59:32;;;;;;;28.30;19.03;;;5.00;99.90;;;;;;8310454;28;20207;-71
2022/11/16 16:03:35;;;;;;;24.57;16.97;;;4.90;99.90;;;;;;8280720;28;20570;-70
2022/11/16 16:07:42;;;;;;;30.73;19.43;;;4.90;99.90;;;;;;8282816;28;20182;-70
2022/11/16 16:11:43;;;;;;;36.90;22.70;;;4.90;99.90;;;;;;8282798;28;20183;-72
2022/11/16 16:15:44;;;;;;;35.93;23.23;;;4.90;99.90;;;;;;8284722;28;20313;-72
2022/11/16 16:19:52;;;;;;;36.90;21.17;;;4.90;99.90;;;;;;8281228;28;20233;-71
2022/11/16 16:23:54;;;;;;;35.73;21.73;;;4.90;99.90;;;;;;8279007;28;20255;-71
2022/11/16 16:27:55;;;;;;;33.53;19.53;;;4.90;99.90;;;;;;8279862;28;20179;-70
2022/11/16 16:31:56;;;;;;;24.63;16.20;;;4.90;99.90;;;;;;8287118;28;20230;-71
2022/11/16 16:35:57;;;;;;;25.30;17.97;;;4.90;99.90;;;;;;8285273;28;20187;-71
2022/11/16 16:39:58;;;;;;;25.83;17.07;;;4.90;99.90;;;;;;8319016;28;20199;-70
2022/11/16 16:43:59;;;;;;;31.20;19.63;;;4.90;99.90;;;;;;8287479;28;20175;-69
2022/11/16 16:48:00;;;;;;;37.03;23.67;;;4.80;99.90;;;;;;8284926;28;20258;-71
2022/11/16 16:52:01;;;;;;;36.77;25.17;;;4.80;99.90;;;;;;8283093;28;20187;-70
2022/11/16 16:56:02;;;;;;;37.77;21.13;;;4.80;99.90;;;;;;8285558;28;20191;-69
2022/11/16 17:00:03;;;;;;;33.73;20.17;;;4.80;99.90;;;;;;8288607;28;20226;-72
2022/11/16 17:04:04;;;;;;;35.30;20.83;;;4.80;99.90;;;;;;8322976;28;20214;-71
2022/11/16 17:08:05;;;;;;;31.23;18.37;;;4.80;99.90;;;;;;8289810;28;20188;-72
2022/11/16 17:12:06;;;;;;;46.53;21.67;;;4.80;99.90;;;;;;8287755;28;20813;-72
2022/11/16 17:16:07;;;;;;;44.70;23.33;;;4.70;99.90;;;;;;8282063;28;20262;-71
2022/11/16 17:20:10;;;;;;;34.93;21.70;;;4.80;99.90;;;;;;8285226;28;20281;-71
2022/11/16 17:24:11;;;;;;;36.13;19.13;;;4.80;99.90;;;;;;8293199;28;20175;-71
2022/11/16 17:28:12;;;;;;;30.67;17.67;;;4.70;99.90;;;;;;8290607;28;20183;-71
2022/11/16 17:32:13;;;;;;;23.23;16.73;;;4.70;99.90;;;;;;8288664;28;20202;-72
2022/11/16 17:36:13;;;;;;;57.40;29.60;;;4.70;99.90;;;;;;8294099;28;20349;-73
2022/11/16 17:40:14;;;;;;;93.90;43.30;;;4.60;99.90;;;;;;8290184;28;20215;-73
2022/11/16 17:44:16;;;;;;;51.70;35.40;;;4.60;99.90;;;;;;8294446;28;20193;-72
2022/11/16 17:48:17;;;;;;;51.87;27.83;;;4.60;99.90;;;;;;8294340;28;20186;-72
2022/11/16 17:52:18;;;;;;;29.60;18.90;;;4.60;99.90;;;;;;8294275;28;20182;-72
2022/11/16 17:56:21;;;;;;;22.50;14.23;;;4.60;99.90;;;;;;8291269;28;20194;-72
2022/11/16 18:00:22;;;;;;;34.60;17.87;;;4.50;99.90;;;;;;8293328;28;20250;-72
2022/11/16 18:04:23;;;;;;;85.90;39.33;;;4.50;99.90;;;;;;8291763;28;20217;-74
2022/11/16 18:08:24;;;;;;;57.73;29.67;;;4.50;99.90;;;;;;8286747;28;20215;-71
2022/11/16 18:12:25;;;;;;;43.93;29.50;;;4.50;99.90;;;;;;8293172;28;20186;-72
2022/11/16 18:16:28;;;;;;;30.87;15.23;;;4.50;99.90;;;;;;8324887;28;20403;-74
2022/11/16 18:20:30;;;;;;;24.93;12.00;;;4.50;99.90;;;;;;8293913;28;20222;-72
2022/11/16 18:24:31;;;;;;;72.80;25.20;;;4.40;99.90;;;;;;8320848;28;20230;-72
2022/11/16 18:28:32;;;;;;;16.83;11.73;;;4.40;99.90;;;;;;8288975;28;20183;-72
2022/11/16 18:32:33;;;;;;;44.63;22.90;;;4.50;99.90;;;;;;8289492;28;20537;-73
2022/11/16 18:36:33;;;;;;;34.20;19.73;;;4.40;99.90;;;;;;8282690;28;20278;-72
2022/11/16 18:40:34;;;;;;;26.97;14.10;;;4.40;99.90;;;;;;8289895;28;20217;-73
2022/11/16 18:44:35;;;;;;;25.87;15.57;;;4.40;99.90;;;;;;8289279;28;20407;-74
2022/11/16 18:48:36;;;;;;;20.10;13.53;;;4.50;99.90;;;;;;8319703;28;20190;-72
2022/11/16 18:52:37;;;;;;;18.83;13.87;;;4.50;99.90;;;;;;8287661;28;20286;-73
2022/11/16 18:56:38;;;;;;;13.80;10.27;;;4.50;99.90;;;;;;8310592;28;20586;-72
2022/11/16 19:00:39;;;;;;;34.83;18.23;;;4.40;99.90;;;;;;8289832;28;20203;-73
2022/11/16 19:04:41;;;;;;;19.43;12.50;;;4.40;99.90;;;;;;8291989;28;20187;-74
2022/11/16 19:08:43;;;;;;;19.40;12.43;;;4.40;99.90;;;;;;8293500;28;20285;-73
2022/11/16 19:12:44;;;;;;;83.80;40.67;;;4.40;99.90;;;;;;8308944;28;20206;-73
2022/11/16 19:16:47;;;;;;;39.30;20.43;;;4.40;99.90;;;;;;8291707;28;20199;-72
2022/11/16 19:20:47;;;;;;;30.80;19.63;;;4.40;99.90;;;;;;8292746;28;20199;-75
2022/11/16 19:24:48;;;;;;;30.50;17.90;;;4.40;99.90;;;;;;8295321;28;20163;-73
2022/11/16 19:28:51;;;;;;;32.53;17.53;;;4.40;99.90;;;;;;8328407;28;20175;-74
2022/11/16 19:32:56;;;;;;;26.90;15.70;;;4.40;99.90;;;;;;8295116;28;20273;-71
2022/11/16 19:36:57;;;;;;;23.73;14.47;;;4.30;99.90;;;;;;8326694;28;20183;-73
2022/11/16 19:41:00;;;;;;;22.50;13.30;;;4.40;99.90;;;;;;8291838;28;20238;-73
2022/11/16 19:45:00;;;;;;;17.43;11.13;;;4.40;99.90;;;;;;8324017;28;20179;-73
2022/11/16 19:49:02;;;;;;;21.40;13.70;;;4.40;99.90;;;;;;8290763;28;20199;-73
2022/11/16 19:53:02;;;;;;;23.47;13.40;;;4.30;99.90;;;;;;8322842;28;20179;-74
2022/11/16 19:57:04;;;;;;;32.57;19.27;;;4.40;99.90;;;;;;8322358;28;20290;-74
2022/11/16 20:01:08;;;;;;;31.20;17.70;;;4.40;99.90;;;;;;8286565;28;20203;-73
2022/11/16 20:05:11;;;;;;;41.30;21.13;;;4.40;99.90;;;;;;8294293;28;20203;-73
2022/11/16 20:09:12;;;;;;;31.37;16.90;;;4.40;99.90;;;;;;8302433;28;20210;-72
2022/11/16 20:13:13;;;;;;;36.40;18.67;;;4.40;99.90;;;;;;8288443;28;20195;-74
2022/11/16 20:17:14;;;;;;;32.87;16.03;;;4.40;99.90;;;;;;8285105;28;20211;-73
2022/11/16 20:21:34;;;;;;;25.07;13.80;;;4.40;99.90;;;;;;8285209;28;20218;-73
2022/11/16 20:25:39;;;;;;;24.07;13.27;;;4.50;99.90;;;;;;8282169;28;20176;-71
2022/11/16 20:29:54;;;;;;;33.60;17.17;;;4.50;99.90;;;;;;8409394;27;20564;-80
2022/11/16 20:33:56;;;;;;;22.30;13.03;;;4.50;99.90;;;;;;8402630;28;20256;-79
2022/11/16 20:37:57;;;;;;;22.17;12.57;;;4.50;99.90;;;;;;8399454;28;20246;-80
2022/11/16 20:41:58;;;;;;;22.03;13.20;;;4.40;99.90;;;;;;8400228;28;20189;-79
2022/11/16 20:45:59;;;;;;;17.57;10.60;;;4.40;99.90;;;;;;8396050;28;20243;-80
2022/11/16 20:50:02;;;;;;;15.73;9.13;;;4.40;99.90;;;;;;8397209;28;20180;-80
2022/11/16 20:54:03;;;;;;;15.20;10.47;;;4.40;99.90;;;;;;8404805;28;20199;-80
2022/11/16 20:58:03;;;;;;;18.20;12.47;;;4.30;99.90;;;;;;8396837;28;20216;-80
2022/11/16 21:02:04;;;;;;;18.53;13.50;;;4.30;99.90;;;;;;8399120;28;20242;-80
2022/11/16 21:06:07;;;;;;;12.83;8.87;;;4.30;99.90;;;;;;8396519;28;20196;-80
2022/11/16 21:10:18;;;;;;;17.80;11.73;;;4.30;99.90;;;;;;8406790;28;20193;-79
2022/11/16 21:14:19;;;;;;;19.07;11.37;;;4.30;99.90;;;;;;8391339;28;20174;-80
2022/11/16 21:18:20;;;;;;;16.37;10.10;;;4.30;99.90;;;;;;8392881;28;20209;-80
2022/11/16 21:22:21;;;;;;;18.33;11.80;;;4.30;99.90;;;;;;8396945;28;20208;-79
2022/11/16 21:26:24;;;;;;;18.23;11.57;;;4.20;99.90;;;;;;8393537;28;20299;-80
2022/11/16 21:30:25;;;;;;;18.70;9.70;;;4.30;99.90;;;;;;8398903;28;20195;-81
2022/11/16 21:34:29;;;;;;;17.40;9.77;;;4.20;99.90;;;;;;8405157;28;20282;-80